Terminal Aerodrome Forecast
Issued by NWS Northern Indiana

Home | Current Version | Previous Version | Text Only | Print | Product List | Glossary Off
Versions: 1 2 3 4 5 6 7 8 9 10 11 12 13 14 15 16 17 18 19

000
FTUS43 KIWX 272000 AAA
TAFFWA
TAF AMD
KFWA 272051Z 2721/2818 23008KT P6SM VCTS BKN050CB
     FM272100 26010KT 5SM TSRA SCT025CB BKN050
      TEMPO 2721/2722 27020G35KT 2SM +TSRA BKN015CB
     FM272200 29013G20KT P6SM BKN035
     FM280500 31012KT P6SM BKN015
      TEMPO 2805/2808 4SM BR BKN008=

USA.gov is the U.S. government's official web portal to all federal, state and local government web resources and services.